createdAt,value
2018-04-10T00:00:14.121Z,18.03
2018-04-10T00:02:42.598Z,21.07
2018-04-10T00:05:11.926Z,17.10
2018-04-10T00:07:40.303Z,15.57
2018-04-10T00:10:10.645Z,15.03
2018-04-10T00:12:39.262Z,14.23
2018-04-10T00:15:07.768Z,14.07
2018-04-10T00:17:36.205Z,14.00
2018-04-10T00:20:04.785Z,14.60
2018-04-10T00:22:33.215Z,15.20
2018-04-10T00:25:03.036Z,14.00
2018-04-10T00:27:31.512Z,14.73
2018-04-10T00:29:59.868Z,16.37
2018-04-10T00:32:28.505Z,13.83
2018-04-10T00:34:57.781Z,14.33
2018-04-10T00:37:26.495Z,14.40
2018-04-10T00:39:54.860Z,15.63
2018-04-10T00:42:23.216Z,15.37
2018-04-10T00:44:51.567Z,16.60
2018-04-10T00:47:20.088Z,17.33
2018-04-10T00:49:49.831Z,18.30
2018-04-10T00:52:18.867Z,18.80
2018-04-10T00:54:48.192Z,18.83
2018-04-10T00:57:17.756Z,18.80
2018-04-10T00:59:46.170Z,17.27
2018-04-10T01:02:14.747Z,16.50
2018-04-10T01:04:43.568Z,16.13
2018-04-10T01:07:11.918Z,16.63
2018-04-10T01:09:41.128Z,14.30
2018-04-10T01:12:09.559Z,13.60
2018-04-10T01:14:39.049Z,13.63
2018-04-10T01:17:07.847Z,14.27
2018-04-10T01:19:36.214Z,14.23
2018-04-10T01:22:05.622Z,15.10
2018-04-10T01:24:34.259Z,18.10
2018-04-10T01:27:03.294Z,17.40
2018-04-10T01:29:31.881Z,18.17
2018-04-10T01:32:01.392Z,19.87
2018-04-10T01:34:29.798Z,17.80
2018-04-10T01:36:58.180Z,17.43
2018-04-10T01:39:26.564Z,15.67
2018-04-10T01:41:55.056Z,13.60
2018-04-10T01:44:23.539Z,11.90
2018-04-10T01:46:51.929Z,11.27
2018-04-10T01:49:20.522Z,11.60
2018-04-10T01:51:49.795Z,11.27
2018-04-10T01:54:18.473Z,11.90
2018-04-10T01:56:47.172Z,11.87
2018-04-10T01:59:16.463Z,10.40
2018-04-10T02:01:45.141Z,10.90
2018-04-10T02:04:13.742Z,11.63
2018-04-10T02:06:42.221Z,16.20
2018-04-10T02:09:10.985Z,17.33
2018-04-10T02:11:39.447Z,18.23
2018-04-10T02:14:08.215Z,18.03
2018-04-10T02:16:36.562Z,18.00
2018-04-10T02:19:05.815Z,17.10
2018-04-10T02:21:34.333Z,17.87
2018-04-10T02:24:03.350Z,12.57
2018-04-10T02:26:31.803Z,11.27
2018-04-10T02:29:00.238Z,11.70
2018-04-10T02:31:29.043Z,11.07
2018-04-10T02:33:57.552Z,11.10
2018-04-10T02:36:27.092Z,11.83
2018-04-10T02:38:55.795Z,13.13
2018-04-10T02:41:24.143Z,17.23
2018-04-10T02:43:52.492Z,17.10
2018-04-10T02:46:20.855Z,17.10
2018-04-10T02:48:49.948Z,16.00
2018-04-10T02:51:19.608Z,17.10
2018-04-10T02:53:48.010Z,18.30
2018-04-10T02:56:17.373Z,18.70
2018-04-10T02:58:45.790Z,18.80
2018-04-10T03:01:14.902Z,18.23
2018-04-10T03:03:44.371Z,16.50
2018-04-10T03:06:12.723Z,16.63
2018-04-10T03:08:41.102Z,14.90
2018-04-10T03:11:10.799Z,13.20
2018-04-10T03:13:39.180Z,14.87
2018-04-10T03:16:07.531Z,16.00
2018-04-10T03:18:35.939Z,14.90
2018-04-10T03:21:04.350Z,14.63
2018-04-10T03:23:33.002Z,13.67
2018-04-10T03:26:01.960Z,14.93
2018-04-10T03:28:30.355Z,16.03
2018-04-10T03:30:59.046Z,16.30
2018-04-10T03:33:27.955Z,17.13
2018-04-10T03:35:56.836Z,16.50
2018-04-10T03:38:25.204Z,16.00
2018-04-10T03:40:54.023Z,15.83
2018-04-10T03:43:22.506Z,16.93
2018-04-10T03:45:51.069Z,15.40
2018-04-10T03:48:19.463Z,16.60
2018-04-10T03:50:48.444Z,15.73
2018-04-10T03:53:17.309Z,16.13
2018-04-10T03:55:45.734Z,12.90
2018-04-10T03:58:14.214Z,11.13
2018-04-10T04:00:42.885Z,11.90
2018-04-10T04:03:11.542Z,27.23
2018-04-10T04:05:40.656Z,29.93
2018-04-10T04:08:09.254Z,40.70
2018-04-10T04:10:38.089Z,18.90
2018-04-10T04:13:06.842Z,19.37
2018-04-10T04:15:35.184Z,19.87
2018-04-10T04:18:03.978Z,17.33
2018-04-10T04:20:44.913Z,15.70
2018-04-10T04:23:15.699Z,16.13
2018-04-10T04:25:44.330Z,15.20
2018-04-10T04:28:12.811Z,15.03
2018-04-10T04:30:41.680Z,14.03
2018-04-10T04:33:10.274Z,16.33
2018-04-10T04:35:39.052Z,16.23
2018-04-10T04:38:07.439Z,19.97
2018-04-10T04:40:36.265Z,21.17
2018-04-10T04:43:04.615Z,19.00
2018-04-10T04:45:32.982Z,19.63
2018-04-10T04:48:02.267Z,16.83
2018-04-10T04:50:30.824Z,14.83
2018-04-10T04:52:59.790Z,16.63
2018-04-10T04:55:28.161Z,15.23
2018-04-10T04:57:56.847Z,14.90
2018-04-10T05:00:25.685Z,19.03
2018-04-10T05:02:54.103Z,17.90
2018-04-10T05:05:22.516Z,18.73
2018-04-10T05:07:50.884Z,14.47
2018-04-10T05:10:19.619Z,14.33
2018-04-10T05:12:49.138Z,31.13
2018-04-10T05:15:18.072Z,20.43
2018-04-10T05:17:46.439Z,19.67
2018-04-10T05:20:15.239Z,16.53
2018-04-10T05:22:43.657Z,18.00
2018-04-10T05:25:13.283Z,17.77
2018-04-10T05:27:41.693Z,18.43
2018-04-10T05:30:10.294Z,18.23
2018-04-10T05:32:38.660Z,18.47
2018-04-10T05:35:07.057Z,18.00
2018-04-10T05:37:36.215Z,18.73
2018-04-10T05:40:04.566Z,20.10
2018-04-10T05:42:33.154Z,20.63
2018-04-10T05:45:01.906Z,30.47
2018-04-10T05:47:30.337Z,44.10
2018-04-10T05:49:59.189Z,21.93
2018-04-10T05:52:27.575Z,23.13
2018-04-10T05:54:56.771Z,25.87
2018-04-10T05:57:25.297Z,22.10
2018-04-10T05:59:54.762Z,22.90
2018-04-10T06:02:24.085Z,22.37
2018-04-10T06:04:54.766Z,22.50
2018-04-10T06:07:23.327Z,23.23
2018-04-10T06:09:51.856Z,23.67
2018-04-10T06:12:20.609Z,24.63
2018-04-10T06:14:50.017Z,25.40
2018-04-10T06:17:18.531Z,26.07
2018-04-10T06:19:47.055Z,27.47
2018-04-10T06:22:17.195Z,31.93
2018-04-10T06:24:45.642Z,32.73
2018-04-10T06:27:14.768Z,26.47
2018-04-10T06:29:43.127Z,28.00
2018-04-10T06:32:11.787Z,27.90
2018-04-10T06:34:41.089Z,27.73
2018-04-10T06:37:09.739Z,28.20
2018-04-10T06:39:38.790Z,26.17
2018-04-10T06:42:07.424Z,27.33
2018-04-10T06:44:35.836Z,34.27
2018-04-10T06:47:04.321Z,36.17
2018-04-10T06:49:33.310Z,28.07
2018-04-10T06:52:04.003Z,25.63
2018-04-10T06:54:32.390Z,27.73
2018-04-10T06:57:01.430Z,27.93
2018-04-10T06:59:29.808Z,26.73
2018-04-10T07:01:58.251Z,25.60
2018-04-10T07:04:27.093Z,25.50
2018-04-10T07:06:55.451Z,24.67
2018-04-10T07:09:23.904Z,24.57
2018-04-10T07:11:52.353Z,23.93
2018-04-10T07:14:20.715Z,23.20
2018-04-10T07:16:49.366Z,22.87
2018-04-10T07:19:18.784Z,24.87
2018-04-10T07:21:47.421Z,24.83
2018-04-10T07:24:15.867Z,23.30
2018-04-10T07:26:44.366Z,23.30
2018-04-10T07:29:12.801Z,30.23
2018-04-10T07:31:41.329Z,23.43
2018-04-10T07:34:10.618Z,23.13
2018-04-10T07:36:39.015Z,23.47
2018-04-10T07:39:07.697Z,21.53
2018-04-10T07:41:36.279Z,21.37
2018-04-10T07:44:04.707Z,20.50
2018-04-10T07:46:34.850Z,21.50
2018-04-10T07:49:04.023Z,26.17
2018-04-10T07:51:32.599Z,22.17
2018-04-10T07:54:02.118Z,20.63
2018-04-10T07:56:31.104Z,18.50
2018-04-10T07:58:59.759Z,20.33
2018-04-10T08:01:28.136Z,20.17
2018-04-10T08:03:56.715Z,19.53
2018-04-10T08:06:25.154Z,19.30
2018-04-10T08:08:53.658Z,18.67
2018-04-10T08:11:22.128Z,18.47
2018-04-10T08:13:50.504Z,19.10
2018-04-10T08:16:19.260Z,18.00
2018-04-10T08:18:47.702Z,18.17
2018-04-10T08:21:16.400Z,17.50
2018-04-10T08:23:44.768Z,17.40
2018-04-10T08:26:13.785Z,17.73
2018-04-10T08:28:42.220Z,17.77
2018-04-10T08:31:10.647Z,17.37
2018-04-10T08:33:41.189Z,17.83
2018-04-10T08:36:10.268Z,16.73
2018-04-10T08:38:38.723Z,16.17
2018-04-10T08:41:07.535Z,17.97
2018-04-10T08:43:36.980Z,17.97
2018-04-10T08:46:05.350Z,16.93
2018-04-10T08:48:33.834Z,18.20
2018-04-10T08:51:03.072Z,17.30
2018-04-10T08:53:31.552Z,16.90
2018-04-10T08:56:03.568Z,18.33
2018-04-10T08:58:32.279Z,17.57
2018-04-10T09:01:01.167Z,16.97
2018-04-10T09:03:30.330Z,17.10
2018-04-10T09:05:58.693Z,16.47
2018-04-10T09:08:27.448Z,17.17
2018-04-10T09:10:55.887Z,18.00
2018-04-10T09:13:24.319Z,18.00
2018-04-10T09:15:52.712Z,17.87
2018-04-10T09:18:22.145Z,16.57
2018-04-10T09:20:51.703Z,17.53
2018-04-10T09:23:20.067Z,17.63
2018-04-10T09:25:49.127Z,17.53
2018-04-10T09:28:17.891Z,18.70
2018-04-10T09:30:46.384Z,16.77
2018-04-10T09:33:15.091Z,16.87
2018-04-10T09:35:43.536Z,17.40
2018-04-10T09:38:13.144Z,16.73
2018-04-10T09:40:41.542Z,16.53
2018-04-10T09:43:09.911Z,15.77
2018-04-10T09:45:39.295Z,16.17
2018-04-10T09:48:08.855Z,16.43
2018-04-10T09:50:38.330Z,17.40
2018-04-10T09:53:06.976Z,16.33
2018-04-10T09:55:35.349Z,16.63
2018-04-10T09:58:03.730Z,15.43
2018-04-10T10:00:37.570Z,15.33
2018-04-10T10:03:07.784Z,14.97
2018-04-10T10:05:36.234Z,14.20
2018-04-10T10:08:05.657Z,14.47
2018-04-10T10:10:34.059Z,13.93
2018-04-10T10:13:03.813Z,14.33
2018-04-10T10:15:32.728Z,13.40
2018-04-10T10:18:02.427Z,13.10
2018-04-10T10:20:30.843Z,13.17
2018-04-10T10:22:59.803Z,13.07
2018-04-10T10:25:29.287Z,12.10
2018-04-10T10:27:57.757Z,12.37
2018-04-10T10:30:26.653Z,12.23
2018-04-10T10:32:55.119Z,12.33
2018-04-10T10:35:23.540Z,10.70
2018-04-10T10:37:52.238Z,11.37
2018-04-10T10:40:21.026Z,12.37
2018-04-10T10:42:49.891Z,11.83
2018-04-10T10:45:18.251Z,10.07
2018-04-10T10:47:46.872Z,10.97
2018-04-10T10:50:16.857Z,9.60
2018-04-10T10:52:45.383Z,9.43
2018-04-10T10:55:14.008Z,9.33
2018-04-10T10:57:42.731Z,10.20
2018-04-10T11:00:11.087Z,9.27
2018-04-10T11:02:40.919Z,9.30
2018-04-10T11:05:10.200Z,9.47
2018-04-10T11:07:38.791Z,9.20
2018-04-10T11:10:08.255Z,9.57
2018-04-10T11:12:36.674Z,10.03
2018-04-10T11:15:05.039Z,9.93
2018-04-10T11:17:34.485Z,10.83
2018-04-10T11:20:04.804Z,10.70
2018-04-10T11:22:34.889Z,9.77
2018-04-10T11:25:03.931Z,9.17
2018-04-10T11:27:33.033Z,9.10
2018-04-10T11:30:02.754Z,10.43
2018-04-10T11:32:31.451Z,9.77
2018-04-10T11:34:59.833Z,10.37
2018-04-10T11:37:28.195Z,9.63
2018-04-10T11:39:57.502Z,11.03
2018-04-10T11:42:26.676Z,9.20
2018-04-10T11:44:55.476Z,9.73
2018-04-10T11:47:23.857Z,11.13
2018-04-10T11:49:52.869Z,10.43
2018-04-10T11:52:22.428Z,10.70
2018-04-10T11:54:51.412Z,10.70
2018-04-10T11:57:21.026Z,10.30
2018-04-10T11:59:50.249Z,10.63
2018-04-10T12:02:19.283Z,10.97
2018-04-10T12:04:48.471Z,10.13
2018-04-10T12:07:16.844Z,10.17
2018-04-10T12:09:46.265Z,9.90
2018-04-10T12:12:14.663Z,10.90
2018-04-10T12:14:44.115Z,9.10
2018-04-10T12:17:12.479Z,10.13
2018-04-10T12:19:40.911Z,9.80
2018-04-10T12:22:09.276Z,10.37
2018-04-10T12:24:38.392Z,9.90
2018-04-10T12:27:07.055Z,9.80
2018-04-10T12:29:35.473Z,8.73
2018-04-10T12:32:03.840Z,9.17
2018-04-10T12:34:33.354Z,8.73
2018-04-10T12:37:02.452Z,9.10
2018-04-10T12:39:31.935Z,7.90
2018-04-10T12:42:01.549Z,8.70
2018-04-10T12:44:31.311Z,8.50
2018-04-10T12:47:00.250Z,7.53
2018-04-10T12:49:30.049Z,7.33
2018-04-10T12:52:01.186Z,7.00
2018-04-10T12:54:30.075Z,7.50
2018-04-10T12:56:59.327Z,6.73
2018-04-10T12:59:28.915Z,7.67
2018-04-10T13:01:57.312Z,7.00
2018-04-10T13:04:26.257Z,6.67
2018-04-10T13:06:55.218Z,6.80
2018-04-10T13:09:23.899Z,7.00
2018-04-10T13:11:52.336Z,6.43
2018-04-10T13:14:21.061Z,6.20
2018-04-10T13:16:49.419Z,6.63
2018-04-10T13:19:18.914Z,6.50
2018-04-10T13:21:47.596Z,6.67
2018-04-10T13:24:16.281Z,6.00
2018-04-10T13:26:45.832Z,5.67
2018-04-10T13:29:14.511Z,6.10
2018-04-10T13:31:43.417Z,5.77
2018-04-10T13:34:12.174Z,5.40
2018-04-10T13:36:40.827Z,5.97
2018-04-10T13:39:09.431Z,5.93
2018-04-10T13:41:38.406Z,5.30
2018-04-10T13:44:07.278Z,5.47
2018-04-10T13:46:37.290Z,5.37
2018-04-10T13:49:06.825Z,5.23
2018-04-10T13:51:36.813Z,5.00
2018-04-10T13:54:06.899Z,6.07
2018-04-10T13:56:37.149Z,5.50
2018-04-10T13:59:07.155Z,5.00
2018-04-10T14:01:36.045Z,5.97
2018-04-10T14:04:05.350Z,5.00
2018-04-10T14:09:07.450Z,5.27
2018-04-10T14:11:37.207Z,4.33
2018-04-10T14:14:05.877Z,4.70
2018-04-10T14:16:34.377Z,4.80
2018-04-10T14:19:03.111Z,5.10
2018-04-10T14:21:31.916Z,5.20
2018-04-10T14:24:00.696Z,5.17
2018-04-10T14:26:29.159Z,4.50
2018-04-10T14:28:57.509Z,4.50
2018-04-10T14:31:25.872Z,5.07
2018-04-10T14:33:54.695Z,4.40
2018-04-10T14:36:24.066Z,4.87
2018-04-10T14:38:52.441Z,4.40
2018-04-10T14:41:21.539Z,4.33
2018-04-10T14:43:50.768Z,4.10
2018-04-10T14:46:19.127Z,3.90
2018-04-10T14:48:47.628Z,4.50
2018-04-10T14:51:16.164Z,4.17
2018-04-10T14:53:44.767Z,4.03
2018-04-10T14:56:13.159Z,3.70
2018-04-10T14:58:41.516Z,3.83
2018-04-10T15:01:09.868Z,3.80
2018-04-10T15:03:38.283Z,3.90
2018-04-10T15:06:06.680Z,4.70
2018-04-10T15:08:35.415Z,4.27
2018-04-10T15:11:03.768Z,4.00
2018-04-10T15:13:32.407Z,4.20
2018-04-10T15:16:01.171Z,4.10
2018-04-10T15:18:29.886Z,4.10
2018-04-10T15:20:58.276Z,4.20
2018-04-10T15:23:26.710Z,4.43
2018-04-10T15:25:56.207Z,4.33
2018-04-10T15:28:24.673Z,3.50
2018-04-10T15:30:54.019Z,4.03
2018-04-10T15:33:23.077Z,3.47
2018-04-10T15:35:53.129Z,3.97
2018-04-10T15:38:22.556Z,3.60
2018-04-10T15:40:51.018Z,3.80
2018-04-10T15:43:19.629Z,3.80
2018-04-10T15:45:48.082Z,3.63
2018-04-10T15:48:16.566Z,3.87
2018-04-10T15:50:45.335Z,50.23
2018-04-10T15:53:13.947Z,11.70
2018-04-10T15:55:42.528Z,4.50
2018-04-10T15:58:11.330Z,5.37
2018-04-10T16:00:39.707Z,4.10
2018-04-10T16:03:08.283Z,5.13
2018-04-10T16:05:36.710Z,4.13
2018-04-10T16:08:05.557Z,3.40
2018-04-10T16:10:34.038Z,2.87
2018-04-10T16:13:03.332Z,3.33
2018-04-10T16:15:31.873Z,3.30
2018-04-10T16:18:00.579Z,3.23
2018-04-10T16:20:28.938Z,3.53
2018-04-10T16:22:57.291Z,3.20
2018-04-10T16:25:25.640Z,2.90
2018-04-10T16:27:54.617Z,4.93
2018-04-10T16:30:23.014Z,3.57
2018-04-10T16:32:51.819Z,3.13
2018-04-10T16:35:20.171Z,3.07
2018-04-10T16:37:48.838Z,3.93
2018-04-10T16:40:17.602Z,3.43
2018-04-10T16:42:45.962Z,3.30
2018-04-10T16:45:14.673Z,3.40
2018-04-10T16:47:43.367Z,3.40
2018-04-10T16:50:11.799Z,3.47
2018-04-10T16:52:40.151Z,3.13
2018-04-10T16:55:08.890Z,3.47
2018-04-10T16:57:37.247Z,3.70
2018-04-10T17:00:05.625Z,3.73
2018-04-10T17:02:33.990Z,3.57
2018-04-10T17:05:02.356Z,4.10
2018-04-10T17:07:31.399Z,4.70
2018-04-10T17:09:59.793Z,4.63
2018-04-10T17:12:28.502Z,4.07
2018-04-10T17:14:56.895Z,3.83
2018-04-10T17:17:26.341Z,3.57
2018-04-10T17:19:54.970Z,3.60
2018-04-10T17:22:23.735Z,4.17
2018-04-10T17:24:52.147Z,3.83
2018-04-10T17:27:20.690Z,3.57
2018-04-10T17:29:49.180Z,3.50
2018-04-10T17:32:17.826Z,3.20
2018-04-10T17:34:46.556Z,3.40
2018-04-10T17:37:14.921Z,4.20
2018-04-10T17:39:43.580Z,3.53
2018-04-10T17:42:12.235Z,3.10
2018-04-10T17:44:41.515Z,3.53
2018-04-10T17:47:09.872Z,3.33
2018-04-10T17:49:38.248Z,20.17
2018-04-10T17:52:06.620Z,24.37
2018-04-10T17:54:35.581Z,5.50
2018-04-10T17:57:03.943Z,3.77
2018-04-10T17:59:32.648Z,3.93
2018-04-10T18:02:01.008Z,3.63
2018-04-10T18:04:29.518Z,3.63
2018-04-10T18:06:58.592Z,4.47
2018-04-10T18:09:26.968Z,3.80
2018-04-10T18:11:55.960Z,3.30
2018-04-10T18:14:24.344Z,4.10
2018-04-10T18:16:53.599Z,2.93
2018-04-10T18:19:22.999Z,3.30
2018-04-10T18:21:51.667Z,3.80
2018-04-10T18:24:20.142Z,3.60
2018-04-10T18:26:48.831Z,3.47
2018-04-10T18:29:17.638Z,3.50
2018-04-10T18:31:46.683Z,3.77
2018-04-10T18:34:15.410Z,3.77
2018-04-10T18:36:43.784Z,3.67
2018-04-10T18:39:12.229Z,3.80
2018-04-10T18:41:41.515Z,3.83
2018-04-10T18:44:10.313Z,3.80
2018-04-10T18:46:38.984Z,4.67
2018-04-10T18:49:08.657Z,3.53
2018-04-10T18:51:37.895Z,3.90
2018-04-10T18:54:07.741Z,3.13
2018-04-10T18:56:36.486Z,3.53
2018-04-10T18:59:05.168Z,2.97
2018-04-10T19:01:33.623Z,2.77
2018-04-10T19:04:02.006Z,2.70
2018-04-10T19:06:31.226Z,2.77
2018-04-10T19:08:59.933Z,3.10
2018-04-10T19:14:05.457Z,2.53
2018-04-10T19:16:35.101Z,1.90
2018-04-10T19:19:03.756Z,2.30
2018-04-10T19:21:32.208Z,2.70
2018-04-10T19:24:00.585Z,2.40
2018-04-10T19:26:30.353Z,2.90
2018-04-10T19:28:59.548Z,3.00
2018-04-10T19:31:27.912Z,2.80
2018-04-10T19:33:57.285Z,2.80
2018-04-10T19:36:25.644Z,3.93
2018-04-10T19:38:54.328Z,23.00
2018-04-10T19:41:22.727Z,7.27
2018-04-10T19:43:51.092Z,3.27
2018-04-10T19:46:21.474Z,2.40
2018-04-10T19:48:49.840Z,2.27
2018-04-10T19:51:18.449Z,2.67
2018-04-10T19:53:46.812Z,3.50
2018-04-10T19:56:15.179Z,2.80
2018-04-10T19:58:44.749Z,3.00
2018-04-10T20:01:13.256Z,2.83
2018-04-10T20:03:42.189Z,3.00
2018-04-10T20:06:10.947Z,2.70
2018-04-10T20:08:39.676Z,2.87
2018-04-10T20:11:10.897Z,3.07
2018-04-10T20:13:39.287Z,2.70
2018-04-10T20:16:07.654Z,3.10
2018-04-10T20:18:37.147Z,2.80
2018-04-10T20:21:05.543Z,12.97
2018-04-10T20:23:34.178Z,3.63
2018-04-10T20:26:02.538Z,4.63
2018-04-10T20:28:31.437Z,3.33
2018-04-10T20:30:59.829Z,2.93
2018-04-10T20:33:28.357Z,3.37
2018-04-10T20:35:57.111Z,3.57
2018-04-10T20:38:25.833Z,2.87
2018-04-10T20:40:55.132Z,2.87
2018-04-10T20:43:23.511Z,3.07
2018-04-10T20:45:52.090Z,3.13
2018-04-10T20:48:20.482Z,3.07
2018-04-10T20:50:48.832Z,3.00
2018-04-10T20:53:17.233Z,3.27
2018-04-10T20:55:45.957Z,4.13
2018-04-10T20:58:14.649Z,2.93
2018-04-10T21:00:43.164Z,3.50
2018-04-10T21:03:12.742Z,3.30
2018-04-10T21:05:41.090Z,3.13
2018-04-10T21:08:10.017Z,3.67
2018-04-10T21:10:38.590Z,3.23
2018-04-10T21:13:07.534Z,3.67
2018-04-10T21:15:36.812Z,3.77
2018-04-10T21:18:05.600Z,3.33
2018-04-10T21:20:34.008Z,4.37
2018-04-10T21:23:04.087Z,3.20
2018-04-10T21:25:32.547Z,3.93
2018-04-10T21:28:01.445Z,4.20
2018-04-10T21:30:30.216Z,3.60
2018-04-10T21:32:59.851Z,3.80
2018-04-10T21:35:29.583Z,3.80
2018-04-10T21:37:58.389Z,4.17
2018-04-10T21:40:26.896Z,4.00
2018-04-10T21:43:01.675Z,4.73
2018-04-10T21:45:31.299Z,4.13
2018-04-10T21:47:59.813Z,4.17
2018-04-10T21:50:28.203Z,4.37
2018-04-10T21:52:56.563Z,5.20
2018-04-10T21:55:25.109Z,5.03
2018-04-10T21:57:54.551Z,4.70
2018-04-10T22:00:22.904Z,5.10
2018-04-10T22:02:51.964Z,5.03
2018-04-10T22:05:20.971Z,5.73
2018-04-10T22:07:49.368Z,5.57
2018-04-10T22:10:18.265Z,5.77
2018-04-10T22:12:49.446Z,5.10
2018-04-10T22:15:18.377Z,5.23
2018-04-10T22:17:47.330Z,4.90
2018-04-10T22:20:16.053Z,5.93
2018-04-10T22:22:45.134Z,5.97
2018-04-10T22:25:13.597Z,8.80
2018-04-10T22:27:43.827Z,6.00
2018-04-10T22:30:13.162Z,5.47
2018-04-10T22:32:41.525Z,5.50
2018-04-10T22:35:10.579Z,6.20
2018-04-10T22:37:39.598Z,5.43
2018-04-10T22:40:08.050Z,5.50
2018-04-10T22:42:37.122Z,5.30
2018-04-10T22:45:06.413Z,5.27
2018-04-10T22:47:35.306Z,5.50
2018-04-10T22:50:03.826Z,5.80
2018-04-10T22:52:32.624Z,5.53
2018-04-10T22:55:01.203Z,5.00
2018-04-10T22:57:29.554Z,4.27
2018-04-10T22:59:58.154Z,4.83
2018-04-10T23:02:26.605Z,5.20
2018-04-10T23:04:55.199Z,4.73
2018-04-10T23:07:23.584Z,4.53
2018-04-10T23:09:52.012Z,5.07
2018-04-10T23:12:20.530Z,4.97
2018-04-10T23:14:49.139Z,4.83
2018-04-10T23:17:17.492Z,5.30
2018-04-10T23:19:45.844Z,4.30
2018-04-10T23:22:14.191Z,4.67
2018-04-10T23:24:42.567Z,5.03
2018-04-10T23:27:11.282Z,4.77
2018-04-10T23:29:40.401Z,4.70
2018-04-10T23:32:08.739Z,4.80
2018-04-10T23:34:37.408Z,4.80
2018-04-10T23:37:05.834Z,5.70
2018-04-10T23:39:34.525Z,4.50
2018-04-10T23:42:03.229Z,4.70
2018-04-10T23:44:31.979Z,4.30
2018-04-10T23:47:00.747Z,4.63
2018-04-10T23:49:30.303Z,5.60
2018-04-10T23:51:59.282Z,4.77
2018-04-10T23:54:27.945Z,4.63
2018-04-10T23:56:56.811Z,4.80
2018-04-10T23:59:25.917Z,4.90
